Portada
METAR-TAF:

METAR-TAF

Aeroports :

Sharurah, Aràbia Saudita

latitud: 17-28N, longitud: 047-07E, altitud: 720 m

Observació

L'informe es va fer fa 56 minuts, a les 22:00 UTC
Vent 5 kt del Oest/Sud-Oest
Temperatura 30°C
Humitat 18%
Pressió 1003 hPa
Visibilitat 10 km o més
sense núvols per sota de 1500 mi sense presència de cumulonimbus.

METAR: OESH 082200Z 24005KT CAVOK 30/03 Q1003 NOSIG

Hora: 01:56 (22:56 UTC)

Pronòstic

L'informe es va fer fa 11 hores i 56 minuts, a les 11:00 UTC
Pronòstic vàlid del 08 a les 12 UTC al 09 a les 18 UTC
Vent 14 kt del Nord/Nord-Oest
Visibilitat: 7000 m
Núvols disperses a una alçada de 4000 ft
Temporalment
l' 08 a les 12 UTC al 08 a les 16 UTC
Visibilitat: 3000 m
Escasses núvols a una alçada de 2500 ft, Cumulonimbus.
torb alta de pols
Evolucionant progressivament
l' 08 a les 16 UTC al 08 a les 18 UTC
Vent 3 kt amb direcció variable

TAF: OESH 081100Z 0812/0918 33014KT 7000 SCT040 TEMPO 0812/0816 3000 BLDU FEW025CB BECMG 0816/0818 VRB03KT

Observacions i pronòstics meteorològics de més de 4000 aeroports (METAR i TAF).

Les estacions disponibles són els punts grocs i vermells al mapa.

Posi el ratolí al punt desitjat per veure el nom de l'estació.

Feu clic per veure les observacions i els pronòstics meteorològics.

Per canviar el mapa: feu clic els botons verds amb una creu de color negre per apropar; al botó verd amb un guió per allunyar la imatge; o en les fletxes verdes per a mapes adjacents.


METAR-TAF: